Time;durP1;ratioP1;P1;durP2;ratioP2;P2;SDS_P1;SDS_P2;PMS_P1;PMS_P2;Temp;Humidity;BMP_temperature;BMP_pressure;BME280_temperature;BME280_humidity;BME280_pressure;Samples;Min_cycle;Max_cycle;Signal;HPM_P1;HPM_P2
2022/10/21 00:00:35;;;;;;;;;;;;;;;;;;5163356;28;7112;-73
2022/10/21 00:03:28;;;;;;;;;;;;;;;;;;5148283;28;7153;-71
2022/10/21 00:06:02;;;;;;;;;;;;;;;;;;5148234;28;6933;-72
2022/10/21 00:08:37;;;;;;;;;;;;;;;;;;5148048;28;7166;-74
2022/10/21 00:11:10;;;;;;;;;;;;;;;;;;5147897;28;8012;-73
2022/10/21 00:13:45;;;;;;;;;;;;;;;;;;5147820;28;6937;-72
2022/10/21 00:16:19;;;;;;;;;;;;;;;;;;5163371;28;7043;-73
2022/10/21 00:18:52;;;;;;;;;;;;;;;;;;5163550;28;6972;-72
2022/10/21 00:21:26;;;;;;;;;;;;;;;;;;5148207;28;7016;-74
2022/10/21 00:24:01;;;;;;;;;;;;;;;;;;5163237;28;6976;-74
2022/10/21 00:26:35;;;;;;;;;;;;;;;;;;5148114;28;7041;-75
2022/10/21 00:29:12;;;;;;;;;;;;;;;;;;5147421;28;7108;-73
2022/10/21 00:31:45;;;;;;;;;;;;;;;;;;5150126;28;6929;-72
2022/10/21 00:34:18;;;;;;;;;;;;;;;;;;5167018;28;7467;-72
2022/10/21 00:36:52;;;;;;;;;;;;;;;;;;5152110;28;7193;-73
2022/10/21 00:39:26;;;;;;;;;;;;;;;;;;5151840;28;7119;-75
2022/10/21 00:42:02;;;;;;;;;;;;;;;;;;5151983;28;7062;-74
2022/10/21 00:44:37;;;;;;;;;;;;;;;;;;5151908;28;7109;-73
2022/10/21 00:47:17;;;;;;;;;;;;;;;;;;5151847;28;7103;-73
2022/10/21 00:49:56;;;;;;;;;;;;;;;;;;5166847;28;7166;-75
2022/10/21 00:52:34;;;;;;;;;;;;;;;;;;5151965;28;7081;-75
2022/10/21 00:55:10;;;;;;;;;;;;;;;;;;5151464;28;7035;-74
2022/10/21 00:57:47;;;;;;;;;;;;;;;;;;5151586;28;7010;-72
2022/10/21 01:00:23;;;;;;;;;;;;;;;;;;5166264;28;6935;-72
2022/10/21 01:02:58;;;;;;;;;;;;;;;;;;5151362;28;7084;-73
2022/10/21 01:05:36;;;;;;;;;;;;;;;;;;5151304;28;7030;-72
2022/10/21 01:08:10;;;;;;;;;;;;;;;;;;5151424;28;7298;-77
2022/10/21 01:10:46;;;;;;;;;;;;;;;;;;5151023;28;7075;-74
2022/10/21 01:13:26;;;;;;;;;;;;;;;;;;5166080;28;8235;-73
2022/10/21 01:16:10;;;;;;;;;;;;;;;;;;5151163;28;7040;-73
2022/10/21 01:18:48;;;;;;;;;;;;;;;;;;5166324;28;7121;-75
2022/10/21 01:21:34;;;;;;;;;;;;;;;;;;5166230;28;7082;-72
2022/10/21 01:24:24;;;;;;;;;;;;;;;;;;5150943;28;7210;-73
2022/10/21 01:27:13;;;;;;;;;;;;;;;;;;5148709;28;7494;-71
2022/10/21 01:30:04;;;;;;;;;;;;;;;;;;5150789;28;7062;-73
2022/10/21 01:32:47;;;;;;;;;;;;;;;;;;5150886;28;6980;-74
2022/10/21 01:35:22;;;;;;;;;;;;;;;;;;5166061;28;7297;-75
2022/10/21 01:38:04;;;;;;;;;;;;;;;;;;5150879;28;7089;-72
2022/10/21 01:40:46;;;;;;;;;;;;;;;;;;5150656;28;8086;-75
2022/10/21 01:43:26;;;;;;;;;;;;;;;;;;5150144;28;6970;-75
2022/10/21 01:46:02;;;;;;;;;;;;;;;;;;5150613;28;7002;-76
2022/10/21 01:48:40;;;;;;;;;;;;;;;;;;5150535;28;7157;-75
2022/10/21 01:51:17;;;;;;;;;;;;;;;;;;5150696;28;6977;-73
2022/10/21 01:53:54;;;;;;;;;;;;;;;;;;5165921;28;6988;-74
2022/10/21 01:56:30;;;;;;;;;;;;;;;;;;5150227;28;7087;-76
2022/10/21 01:59:06;;;;;;;;;;;;;;;;;;5150285;28;7301;-74
2022/10/21 02:01:41;;;;;;;;;;;;;;;;;;5165746;28;7011;-72
2022/10/21 02:04:18;;;;;;;;;;;;;;;;;;5150306;28;7032;-73
2022/10/21 02:06:54;;;;;;;;;;;;;;;;;;5150135;28;6995;-75
2022/10/21 02:09:28;;;;;;;;;;;;;;;;;;5165209;28;7056;-74
2022/10/21 02:12:05;;;;;;;;;;;;;;;;;;5149977;28;7019;-73
2022/10/21 02:14:41;;;;;;;;;;;;;;;;;;5150032;28;7180;-71
2022/10/21 02:17:18;;;;;;;;;;;;;;;;;;5149758;28;7099;-72
2022/10/21 02:19:55;;;;;;;;;;;;;;;;;;5165641;28;6995;-73
2022/10/21 02:22:32;;;;;;;;;;;;;;;;;;5165183;28;6923;-74
2022/10/21 02:25:09;;;;;;;;;;;;;;;;;;5181267;28;8086;-74
2022/10/21 02:27:43;;;;;;;;;;;;;;;;;;5164983;28;6932;-73
2022/10/21 02:30:17;;;;;;;;;;;;;;;;;;5150146;28;7110;-71
2022/10/21 02:33:01;;;;;;;;;;;;;;;;;;5149688;28;7119;-77
2022/10/21 02:35:41;;;;;;;;;;;;;;;;;;5149888;28;7301;-70
2022/10/21 02:38:25;;;;;;;;;;;;;;;;;;5149737;28;7139;-77
2022/10/21 02:41:01;;;;;;;;;;;;;;;;;;5164958;28;6936;-74
2022/10/21 02:43:40;;;;;;;;;;;;;;;;;;5165045;28;6957;-72
2022/10/21 02:46:16;;;;;;;;;;;;;;;;;;5149441;28;7034;-72
2022/10/21 02:48:49;;;;;;;;;;;;;;;;;;5149797;28;6994;-70
2022/10/21 02:51:24;;;;;;;;;;;;;;;;;;5164493;28;7064;-70
2022/10/21 02:53:58;;;;;;;;;;;;;;;;;;5148718;28;6975;-74
2022/10/21 02:56:34;;;;;;;;;;;;;;;;;;5149137;28;8044;-76
2022/10/21 02:59:08;;;;;;;;;;;;;;;;;;5149077;28;6995;-72
2022/10/21 03:01:42;;;;;;;;;;;;;;;;;;5180970;28;6930;-73
2022/10/21 03:04:15;;;;;;;;;;;;;;;;;;5164728;28;7026;-76
2022/10/21 03:06:50;;;;;;;;;;;;;;;;;;5149064;28;7007;-73
2022/10/21 03:09:23;;;;;;;;;;;;;;;;;;5164108;28;6947;-76
2022/10/21 03:11:57;;;;;;;;;;;;;;;;;;5164499;28;7155;-74
2022/10/21 03:14:36;;;;;;;;;;;;;;;;;;5148955;28;7147;-71
2022/10/21 03:17:09;;;;;;;;;;;;;;;;;;5148638;28;7018;-73
2022/10/21 03:19:45;;;;;;;;;;;;;;;;;;5164075;28;6946;-73
2022/10/21 03:22:19;;;;;;;;;;;;;;;;;;5164183;28;6942;-76
2022/10/21 03:24:55;;;;;;;;;;;;;;;;;;5149101;28;7090;-72
2022/10/21 03:27:33;;;;;;;;;;;;;;;;;;5180306;28;6952;-74
2022/10/21 03:30:08;;;;;;;;;;;;;;;;;;4463698;28;10007878;-72
2022/10/21 03:32:42;;;;;;;;;;;;;;;;;;5165109;28;7260;-72
2022/10/21 03:35:15;;;;;;;;;;;;;;;;;;5167054;28;8042;-75
2022/10/21 03:37:53;;;;;;;;;;;;;;;;;;5162111;28;6927;-71
2022/10/21 03:40:29;;;;;;;;;;;;;;;;;;5162087;28;7125;-73
2022/10/21 03:43:02;;;;;;;;;;;;;;;;;;5156319;28;31146;-74
2022/10/21 03:45:36;;;;;;;;;;;;;;;;;;5149119;28;136002;-75
2022/10/21 03:48:43;;;;;;;;;;;;;;;;;;5266269;28;11070;-73
2022/10/21 03:51:18;;;;;;;;;;;;;;;;;;5247255;28;11949;-74
2022/10/21 03:53:56;;;;;;;;;;;;;;;;;;5224538;28;6948;-74
2022/10/21 03:56:29;;;;;;;;;;;;;;;;;;5224008;28;7083;-72
2022/10/21 04:00:40;;;;;;;;;;;;;;;;;;5185374;27;10170;-74
2022/10/21 04:03:16;;;;;;;;;;;;;;;;;;4911083;28;5965242;-78
2022/10/21 04:07:10;;;;;;;;;;;;;;;;;;5240363;27;96861;-75
2022/10/21 04:13:08;;;;;;;;;;;;;;;;;;5238209;27;12112;-72
2022/10/21 04:15:41;;;;;;;;;;;;;;;;;;5177199;28;7570;-74
2022/10/21 04:18:15;;;;;;;;;;;;;;;;;;5193390;28;6896;-73
2022/10/21 04:20:53;;;;;;;;;;;;;;;;;;5206503;28;91229;-75
2022/10/21 04:23:35;;;;;;;;;;;;;;;;;;5244579;27;11726;-72
2022/10/21 04:26:09;;;;;;;;;;;;;;;;;;5236737;28;11718;-76
2022/10/21 04:28:43;;;;;;;;;;;;;;;;;;5243043;28;7170;-74
2022/10/21 04:31:17;;;;;;;;;;;;;;;;;;5268887;28;7010;-73
2022/10/21 04:33:51;;;;;;;;;;;;;;;;;;5254898;28;7190;-71
2022/10/21 04:36:27;;;;;;;;;;;;;;;;;;5262104;28;7218;-69
2022/10/21 04:39:04;;;;;;;;;;;;;;;;;;5254811;28;7192;-71
2022/10/21 04:41:37;;;;;;;;;;;;;;;;;;5260877;28;7359;-74
2022/10/21 04:44:15;;;;;;;;;;;;;;;;;;5255041;28;6999;-76
2022/10/21 04:46:49;;;;;;;;;;;;;;;;;;5254667;28;7009;-73
2022/10/21 04:49:24;;;;;;;;;;;;;;;;;;5253438;28;12418;-73
2022/10/21 04:51:59;;;;;;;;;;;;;;;;;;5255491;28;7189;-73
2022/10/21 04:54:36;;;;;;;;;;;;;;;;;;5231312;28;7185;-72
2022/10/21 04:57:10;;;;;;;;;;;;;;;;;;5237126;28;7176;-71
2022/10/21 04:59:44;;;;;;;;;;;;;;;;;;5253969;28;7186;-73
2022/10/21 05:02:18;;;;;;;;;;;;;;;;;;5253068;28;7173;-74
2022/10/21 05:04:59;;;;;;;;;;;;;;;;;;5263436;28;7386;-72
2022/10/21 05:07:33;;;;;;;;;;;;;;;;;;5246491;28;8842;-77
2022/10/21 05:10:09;;;;;;;;;;;;;;;;;;5258442;28;7230;-73
2022/10/21 05:12:42;;;;;;;;;;;;;;;;;;5252599;28;7292;-72
2022/10/21 05:15:16;;;;;;;;;;;;;;;;;;5251925;28;7010;-76
2022/10/21 05:17:52;;;;;;;;;;;;;;;;;;5263758;28;7208;-76
2022/10/21 05:20:25;;;;;;;;;;;;;;;;;;5260411;28;7108;-72
2022/10/21 05:22:58;;;;;;;;;;;;;;;;;;5254007;28;7206;-73
2022/10/21 05:25:33;;;;;;;;;;;;;;;;;;5246591;28;7227;-73
2022/10/21 05:28:06;;;;;;;;;;;;;;;;;;5244935;28;7233;-74
2022/10/21 05:30:40;;;;;;;;;;;;;;;;;;5261891;28;7183;-75
2022/10/21 05:33:18;;;;;;;;;;;;;;;;;;5241952;28;7130;-72
2022/10/21 05:35:55;;;;;;;;;;;;;;;;;;5241032;28;7185;-73
2022/10/21 05:38:32;;;;;;;;;;;;;;;;;;5231757;28;7210;-74
2022/10/21 05:41:09;;;;;;;;;;;;;;;;;;5240871;28;7187;-74
2022/10/21 05:43:43;;;;;;;;;;;;;;;;;;5236060;28;7013;-71
2022/10/21 05:46:19;;;;;;;;;;;;;;;;;;5239276;28;7011;-72
2022/10/21 05:48:53;;;;;;;;;;;;;;;;;;5229272;28;7259;-73
2022/10/21 05:51:27;;;;;;;;;;;;;;;;;;5248047;28;8176;-72
2022/10/21 05:54:04;;;;;;;;;;;;;;;;;;5249854;28;7163;-72
2022/10/21 05:56:40;;;;;;;;;;;;;;;;;;5249684;28;7014;-68
2022/10/21 05:59:16;;;;;;;;;;;;;;;;;;5251148;28;7199;-72
2022/10/21 06:01:49;;;;;;;;;;;;;;;;;;5250744;28;7014;-71
2022/10/21 06:04:25;;;;;;;;;;;;;;;;;;5249893;28;7021;-75
2022/10/21 06:06:58;;;;;;;;;;;;;;;;;;5241701;28;7258;-73
2022/10/21 06:09:34;;;;;;;;;;;;;;;;;;5230076;28;7093;-72
2022/10/21 06:12:09;;;;;;;;;;;;;;;;;;5228891;28;7016;-73
2022/10/21 06:14:45;;;;;;;;;;;;;;;;;;5250379;28;7019;-73
2022/10/21 06:17:20;;;;;;;;;;;;;;;;;;5230628;28;7016;-71
2022/10/21 06:19:56;;;;;;;;;;;;;;;;;;5250087;28;8096;-73
2022/10/21 06:22:32;;;;;;;;;;;;;;;;;;5248545;28;7141;-74
2022/10/21 06:25:06;;;;;;;;;;;;;;;;;;5237700;28;7256;-70
2022/10/21 06:27:41;;;;;;;;;;;;;;;;;;5229646;28;7189;-72
2022/10/21 06:30:14;;;;;;;;;;;;;;;;;;5228358;28;7240;-70
2022/10/21 06:32:51;;;;;;;;;;;;;;;;;;5250238;28;7242;-72
2022/10/21 06:35:26;;;;;;;;;;;;;;;;;;5249378;28;7095;-73
2022/10/21 06:38:00;;;;;;;;;;;;;;;;;;5243840;28;7191;-72
2022/10/21 06:40:33;;;;;;;;;;;;;;;;;;5228444;28;7265;-71
2022/10/21 06:43:08;;;;;;;;;;;;;;;;;;5228270;28;7309;-72
2022/10/21 06:45:44;;;;;;;;;;;;;;;;;;5227400;28;7253;-71
2022/10/21 06:48:20;;;;;;;;;;;;;;;;;;5229698;28;7143;-73
2022/10/21 06:50:56;;;;;;;;;;;;;;;;;;5228573;28;7175;-71
2022/10/21 06:53:29;;;;;;;;;;;;;;;;;;5229241;28;8102;-75
2022/10/21 06:56:08;;;;;;;;;;;;;;;;;;5229195;28;7155;-72
2022/10/21 06:58:46;;;;;;;;;;;;;;;;;;5228020;28;7645;-72
2022/10/21 07:01:22;;;;;;;;;;;;;;;;;;5244594;28;7143;-71
2022/10/21 07:04:13;;;;;;;;;;;;;;;;;;5227940;28;7175;-74
2022/10/21 07:06:47;;;;;;;;;;;;;;;;;;5211303;28;7018;-70
2022/10/21 07:09:23;;;;;;;;;;;;;;;;;;5249845;28;7382;-73
2022/10/21 07:12:00;;;;;;;;;;;;;;;;;;5251311;28;7196;-70
2022/10/21 07:14:35;;;;;;;;;;;;;;;;;;4893756;28;10000094;-72
2022/10/21 07:17:09;;;;;;;;;;;;;;;;;;5229038;28;7137;-71
2022/10/21 07:19:47;;;;;;;;;;;;;;;;;;5248959;28;7219;-74
2022/10/21 07:22:20;;;;;;;;;;;;;;;;;;5231677;28;7165;-72
2022/10/21 07:24:54;;;;;;;;;;;;;;;;;;5249516;28;7194;-71
2022/10/21 07:27:27;;;;;;;;;;;;;;;;;;5248206;28;7013;-75
2022/10/21 07:30:05;;;;;;;;;;;;;;;;;;5227677;28;8169;-71
2022/10/21 07:32:38;;;;;;;;;;;;;;;;;;5227637;28;7018;-72
2022/10/21 07:35:11;;;;;;;;;;;;;;;;;;5228321;28;7180;-70
2022/10/21 07:37:45;;;;;;;;;;;;;;;;;;5228908;28;7282;-72
2022/10/21 07:40:21;;;;;;;;;;;;;;;;;;5248989;28;7395;-69
2022/10/21 07:42:57;;;;;;;;;;;;;;;;;;5248784;28;7249;-71
2022/10/21 07:45:32;;;;;;;;;;;;;;;;;;5248878;28;7192;-70
2022/10/21 07:48:06;;;;;;;;;;;;;;;;;;5245436;28;7134;-77
2022/10/21 07:50:41;;;;;;;;;;;;;;;;;;5249056;28;7185;-74
2022/10/21 07:53:19;;;;;;;;;;;;;;;;;;5248790;28;7131;-71
2022/10/21 07:56:03;;;;;;;;;;;;;;;;;;5247772;28;7191;-71
2022/10/21 07:58:37;;;;;;;;;;;;;;;;;;5241012;28;7014;-72
2022/10/21 08:01:13;;;;;;;;;;;;;;;;;;5227741;28;7188;-71
2022/10/21 08:03:47;;;;;;;;;;;;;;;;;;5227789;28;7141;-72
2022/10/21 08:06:24;;;;;;;;;;;;;;;;;;5227917;28;7490;-72
2022/10/21 08:08:58;;;;;;;;;;;;;;;;;;5227712;28;7158;-74
2022/10/21 08:11:33;;;;;;;;;;;;;;;;;;5243465;28;7161;-69
2022/10/21 08:14:07;;;;;;;;;;;;;;;;;;5243246;28;7212;-69
2022/10/21 08:16:42;;;;;;;;;;;;;;;;;;5239716;28;7280;-72
2022/10/21 08:19:18;;;;;;;;;;;;;;;;;;5248219;28;7223;-73
2022/10/21 08:21:53;;;;;;;;;;;;;;;;;;5230785;28;7229;-72
2022/10/21 08:25:48;;;;;;;;;;;;;;;;;;5300850;27;11533;-36
2022/10/21 08:28:24;;;;;;;;;;;;;;;;;;5273357;28;42035;-42
2022/10/21 08:32:22;;;;;;;;;;;;;;;;;;5253792;27;102039;-38
2022/10/21 08:35:17;;;;;;;;;;;;;;;;;;5270054;27;11499;-40
2022/10/21 08:37:51;;;;;;;;;;;;;;;;;;5209705;28;16840;-38
2022/10/21 08:40:30;;;;;;;;;;;;;;;;;;5200725;28;12241;-38
2022/10/21 08:43:08;;;;;;;;;;;;;;;;;;5200426;28;18229;-37
2022/10/21 08:45:50;;;;;;;;;;;;;;;;;;5195095;28;18945;-38
2022/10/21 08:50:19;;;;;;;;;;;;;;;;;;5268395;27;11301;-74
2022/10/21 08:52:57;;;;;;;;;;;;;;;;;;5194943;28;7287;-73
2022/10/21 08:55:35;;;;;;;;;;;;;;;;;;5222867;28;8054;-74
2022/10/21 08:58:14;;;;;;;;;;;;;;;;;;5230594;28;11908;-73
2022/10/21 09:05:37;;;;;;;;;;;;;;;;;;5170447;28;87227;-46
2022/10/21 09:08:18;;;;;;;;;;;;;;;;;;5164073;28;6991;-41
2022/10/21 09:11:02;;;;;;;;;;;;;;;;;;5163629;28;7048;-39
2022/10/21 09:13:51;;;;;;;;;;;;;;;;;;5164420;28;7017;-37
2022/10/21 09:16:36;;;;;;;;;;;;;;;;;;5154935;28;7025;-37
2022/10/21 09:22:50;;;;;;;;;;;;;;;;;;5260945;27;11273;-72
2022/10/21 09:25:28;;;;;;;;;;;;;;;;;;5203791;28;7196;-71
2022/10/21 09:29:02;;;;;;;;;;;;;;;;;;5238339;27;11252;-73
2022/10/21 09:31:37;;;;;;;;;;;;;;;;;;5197891;28;12033;-73
2022/10/21 09:34:17;;;;;;;;;;;;;;;;;;5184432;28;7217;-74
2022/10/21 09:36:54;;;;;;;;;;;;;;;;;;5197261;28;7194;-75
2022/10/21 09:41:28;;;;;;;;;;;;;;;;;;5351764;27;6773;-73
2022/10/21 09:44:03;;;;;;;;;;;;;;;;;;5312662;27;7121;-74
2022/10/21 09:46:35;;;;;;;;;;;;;;;;;;5295325;27;7017;-75
2022/10/21 09:49:16;;;;;;;;;;;;;;;;;;5329336;27;7100;-74
2022/10/21 09:52:10;;;;;;;;;;;;;;;;;;5315100;27;7272;-72
2022/10/21 09:54:43;;;;;;;;;;;;;;;;;;5330229;27;7260;-71
2022/10/21 09:57:22;;;;;;;;;;;;;;;;;;5291757;27;7017;-75
2022/10/21 09:59:58;;;;;;;;;;;;;;;;;;5272500;27;11903;-73
2022/10/21 10:03:13;;;;;;;;;;;;;;;;;;5334430;27;7294;-71
2022/10/21 10:05:47;;;;;;;;;;;;;;;;;;5274071;28;7021;-73
2022/10/21 10:13:16;;;;;;;;;;;;;;;;;;5273164;27;105060;-37
2022/10/21 10:15:50;;;;;;;;;;;;;;;;;;5265547;28;12834;-47
2022/10/21 10:18:22;;;;;;;;;;;;;;;;;;5265920;28;13052;-49
2022/10/21 10:21:09;;;;;;;;;;;;;;;;;;5268320;28;12803;-45
2022/10/21 10:25:49;;;;;;;;;;;;;;;;;;5253891;27;11548;-39
2022/10/21 10:28:25;;;;;;;;;;;;;;;;;;5233829;28;16655;-46
2022/10/21 10:30:59;;;;;;;;;;;;;;;;;;5264592;28;7048;-38
2022/10/21 10:33:36;;;;;;;;;;;;;;;;;;5249355;28;12695;-39
2022/10/21 10:36:24;;;;;;;;;;;;;;;;;;5253385;28;17006;-43
2022/10/21 10:39:01;;;;;;;;;;;;;;;;;;5245892;28;7111;-40
2022/10/21 10:41:37;;;;;;;;;;;;;;;;;;5257323;28;7108;-39
2022/10/21 10:44:29;;;;;;;;;;;;;;;;;;5257890;28;7086;-37
2022/10/21 10:47:04;;;;;;;;;;;;;;;;;;5249508;28;6992;-38
2022/10/21 10:49:38;;;;;;;;;;;;;;;;;;5266726;28;7112;-39
2022/10/21 10:52:10;;;;;;;;;;;;;;;;;;5247487;28;7022;-39
2022/10/21 10:59:08;;;;;;;;;;;;;;;;;;5331217;27;11831;-39
2022/10/21 11:02:09;;;;;;;;;;;;;;;;;;5257942;28;16502;-55
2022/10/21 11:05:07;;;;;;;;;;;;;;;;;;5235792;28;11556;-54
2022/10/21 11:07:57;;;;;;;;;;;;;;;;;;5225930;28;6900;-49
2022/10/21 11:14:24;;;;;;;;;;;;;;;;;;5159850;27;10000573;-70
2022/10/21 11:17:08;;;;;;;;;;;;;;;;;;5261462;28;16442;-69
2022/10/21 11:19:43;;;;;;;;;;;;;;;;;;5252869;28;7191;-69
2022/10/21 11:22:39;;;;;;;;;;;;;;;;;;5266418;28;7220;-68
2022/10/21 11:25:16;;;;;;;;;;;;;;;;;;5289074;28;7394;-67
2022/10/21 11:28:09;;;;;;;;;;;;;;;;;;5275068;28;7021;-68
2022/10/21 11:30:41;;;;;;;;;;;;;;;;;;5289229;28;7219;-71
2022/10/21 11:33:23;;;;;;;;;;;;;;;;;;5266241;28;7190;-67
2022/10/21 11:35:58;;;;;;;;;;;;;;;;;;5273947;28;7134;-69
2022/10/21 11:38:44;;;;;;;;;;;;;;;;;;5274897;28;8089;-67
2022/10/21 11:41:18;;;;;;;;;;;;;;;;;;5270563;28;7105;-66
2022/10/21 11:43:55;;;;;;;;;;;;;;;;;;5274398;28;7101;-69
2022/10/21 11:46:42;;;;;;;;;;;;;;;;;;5271570;28;7224;-67
2022/10/21 11:49:35;;;;;;;;;;;;;;;;;;5292216;28;7017;-69
2022/10/21 11:52:29;;;;;;;;;;;;;;;;;;5270228;28;7178;-71
2022/10/21 11:55:19;;;;;;;;;;;;;;;;;;5271350;28;12055;-71
2022/10/21 11:58:49;;;;;;;;;;;;;;;;;;5338574;27;11352;-70
2022/10/21 12:01:28;;;;;;;;;;;;;;;;;;5270152;28;16584;-68
2022/10/21 12:04:19;;;;;;;;;;;;;;;;;;5274954;28;7027;-71
2022/10/21 12:07:17;;;;;;;;;;;;;;;;;;5289559;28;6924;-66
2022/10/21 12:09:49;;;;;;;;;;;;;;;;;;5241412;28;6885;-67
2022/10/21 12:12:27;;;;;;;;;;;;;;;;;;5274385;28;6909;-68
2022/10/21 12:15:12;;;;;;;;;;;;;;;;;;5275647;28;7049;-70
2022/10/21 12:17:49;;;;;;;;;;;;;;;;;;5313736;27;7115;-67
2022/10/21 12:20:26;;;;;;;;;;;;;;;;;;5323538;27;7062;-68
2022/10/21 12:23:04;;;;;;;;;;;;;;;;;;5282922;28;7046;-68
2022/10/21 12:25:44;;;;;;;;;;;;;;;;;;5298280;28;6851;-69
2022/10/21 12:28:43;;;;;;;;;;;;;;;;;;5287745;28;7066;-71
2022/10/21 12:31:33;;;;;;;;;;;;;;;;;;5276201;28;7045;-74
2022/10/21 12:34:09;;;;;;;;;;;;;;;;;;5278473;28;7031;-72
2022/10/21 12:36:52;;;;;;;;;;;;;;;;;;5298139;28;6847;-72
2022/10/21 12:39:33;;;;;;;;;;;;;;;;;;5297305;27;7030;-71
2022/10/21 12:42:25;;;;;;;;;;;;;;;;;;5271830;28;6935;-70
2022/10/21 12:45:24;;;;;;;;;;;;;;;;;;4829195;28;10007924;-69
2022/10/21 12:48:00;;;;;;;;;;;;;;;;;;5281375;28;6972;-69
2022/10/21 12:50:35;;;;;;;;;;;;;;;;;;5295479;28;6859;-68
2022/10/21 12:53:27;;;;;;;;;;;;;;;;;;5270971;28;11787;-71
2022/10/21 12:56:00;;;;;;;;;;;;;;;;;;5256783;28;6863;-72
2022/10/21 12:58:36;;;;;;;;;;;;;;;;;;5263250;28;6851;-75
2022/10/21 13:01:33;;;;;;;;;;;;;;;;;;5283707;28;11637;-71
2022/10/21 13:04:25;;;;;;;;;;;;;;;;;;5297401;28;8340;-70
2022/10/21 13:07:15;;;;;;;;;;;;;;;;;;5286792;28;7014;-69
2022/10/21 13:09:51;;;;;;;;;;;;;;;;;;5266210;28;7948;-65
2022/10/21 13:12:25;;;;;;;;;;;;;;;;;;5280421;28;7034;-63
2022/10/21 13:15:05;;;;;;;;;;;;;;;;;;5271212;28;7001;-68
2022/10/21 13:17:51;;;;;;;;;;;;;;;;;;5282569;28;7078;-62
2022/10/21 13:20:43;;;;;;;;;;;;;;;;;;5265090;28;7026;-64
2022/10/21 13:23:30;;;;;;;;;;;;;;;;;;5278586;28;7088;-66
2022/10/21 13:26:04;;;;;;;;;;;;;;;;;;5281746;28;7102;-68
2022/10/21 13:28:42;;;;;;;;;;;;;;;;;;5278979;28;6851;-63
2022/10/21 13:31:23;;;;;;;;;;;;;;;;;;5285254;28;6993;-64
2022/10/21 13:33:58;;;;;;;;;;;;;;;;;;5264676;28;8110;-62
2022/10/21 13:36:37;;;;;;;;;;;;;;;;;;5281203;28;8027;-63
2022/10/21 13:39:38;;;;;;;;;;;;;;;;;;5280015;28;6935;-67
2022/10/21 13:42:17;;;;;;;;;;;;;;;;;;5263083;28;6852;-62
2022/10/21 13:44:59;;;;;;;;;;;;;;;;;;5278211;28;7939;-66
2022/10/21 13:47:33;;;;;;;;;;;;;;;;;;5277947;28;7940;-66
2022/10/21 13:50:17;;;;;;;;;;;;;;;;;;5232290;28;6856;-66
2022/10/21 13:52:52;;;;;;;;;;;;;;;;;;5263102;28;7026;-71
2022/10/21 13:55:24;;;;;;;;;;;;;;;;;;5274172;28;6855;-67
2022/10/21 13:57:57;;;;;;;;;;;;;;;;;;5290102;28;6979;-67
2022/10/21 14:00:34;;;;;;;;;;;;;;;;;;5271346;28;7027;-68
2022/10/21 14:03:16;;;;;;;;;;;;;;;;;;5271176;28;6851;-69
2022/10/21 14:05:55;;;;;;;;;;;;;;;;;;5254210;28;7113;-69
2022/10/21 14:08:36;;;;;;;;;;;;;;;;;;5259069;28;7213;-72
2022/10/21 14:11:28;;;;;;;;;;;;;;;;;;5257515;28;8028;-70
2022/10/21 14:14:16;;;;;;;;;;;;;;;;;;5270581;28;7082;-71
2022/10/21 14:16:57;;;;;;;;;;;;;;;;;;5253825;28;7006;-70
2022/10/21 14:19:33;;;;;;;;;;;;;;;;;;5269634;28;7137;-69
2022/10/21 14:22:17;;;;;;;;;;;;;;;;;;5270542;28;7019;-70
2022/10/21 14:24:57;;;;;;;;;;;;;;;;;;5270750;28;8050;-67
2022/10/21 14:27:31;;;;;;;;;;;;;;;;;;5236345;28;7163;-69
2022/10/21 14:30:15;;;;;;;;;;;;;;;;;;5288857;28;6986;-64
2022/10/21 14:32:53;;;;;;;;;;;;;;;;;;5273798;28;7039;-62
2022/10/21 14:35:27;;;;;;;;;;;;;;;;;;5259196;28;7042;-62
2022/10/21 14:38:04;;;;;;;;;;;;;;;;;;5252723;28;7063;-64
2022/10/21 14:40:41;;;;;;;;;;;;;;;;;;5252763;28;7055;-62
2022/10/21 14:43:25;;;;;;;;;;;;;;;;;;5270787;28;6855;-66
2022/10/21 14:46:00;;;;;;;;;;;;;;;;;;5265152;28;7091;-65
2022/10/21 14:48:37;;;;;;;;;;;;;;;;;;5288802;28;7013;-64
2022/10/21 14:51:17;;;;;;;;;;;;;;;;;;5278551;28;6951;-64
2022/10/21 14:54:00;;;;;;;;;;;;;;;;;;5270041;28;7912;-66
2022/10/21 14:56:42;;;;;;;;;;;;;;;;;;5269853;28;7025;-66
2022/10/21 14:59:28;;;;;;;;;;;;;;;;;;5263812;28;7070;-66
2022/10/21 15:02:04;;;;;;;;;;;;;;;;;;5252739;28;7282;-65
2022/10/21 15:04:51;;;;;;;;;;;;;;;;;;5281770;28;8031;-65
2022/10/21 15:07:28;;;;;;;;;;;;;;;;;;5264646;28;7959;-68
2022/10/21 15:10:17;;;;;;;;;;;;;;;;;;5258663;28;6851;-71
2022/10/21 15:12:51;;;;;;;;;;;;;;;;;;5230003;28;6946;-69
2022/10/21 15:15:41;;;;;;;;;;;;;;;;;;5256634;28;6988;-69
2022/10/21 15:18:37;;;;;;;;;;;;;;;;;;5272983;28;6975;-71
2022/10/21 15:21:22;;;;;;;;;;;;;;;;;;5244501;28;6852;-68
2022/10/21 15:23:57;;;;;;;;;;;;;;;;;;5251974;28;6986;-68
2022/10/21 15:26:38;;;;;;;;;;;;;;;;;;5269570;28;7033;-69
2022/10/21 15:29:22;;;;;;;;;;;;;;;;;;5259314;28;6863;-68
2022/10/21 15:31:59;;;;;;;;;;;;;;;;;;5273298;28;7029;-68
2022/10/21 15:34:32;;;;;;;;;;;;;;;;;;5272350;28;7011;-67
2022/10/21 15:37:06;;;;;;;;;;;;;;;;;;5290399;28;7031;-68
2022/10/21 15:39:47;;;;;;;;;;;;;;;;;;5290463;28;7388;-67
2022/10/21 15:42:22;;;;;;;;;;;;;;;;;;5272994;28;6996;-69
2022/10/21 15:45:01;;;;;;;;;;;;;;;;;;5288239;28;7940;-65
2022/10/21 15:47:38;;;;;;;;;;;;;;;;;;5285263;28;7031;-66
2022/10/21 15:50:16;;;;;;;;;;;;;;;;;;5269386;28;7446;-65
2022/10/21 15:52:49;;;;;;;;;;;;;;;;;;5235173;28;6855;-64
2022/10/21 15:55:28;;;;;;;;;;;;;;;;;;5280181;28;6859;-65
2022/10/21 15:58:03;;;;;;;;;;;;;;;;;;5268153;28;6859;-69
2022/10/21 16:00:38;;;;;;;;;;;;;;;;;;5268856;28;6856;-70
2022/10/21 16:03:14;;;;;;;;;;;;;;;;;;5290155;28;6930;-71
2022/10/21 16:05:49;;;;;;;;;;;;;;;;;;5271439;28;7023;-69
2022/10/21 16:08:22;;;;;;;;;;;;;;;;;;5251260;28;7024;-67
2022/10/21 16:10:59;;;;;;;;;;;;;;;;;;5235163;28;7079;-69
2022/10/21 16:13:31;;;;;;;;;;;;;;;;;;5246652;28;11434;-69
2022/10/21 16:16:16;;;;;;;;;;;;;;;;;;5268536;28;7024;-67
2022/10/21 16:18:52;;;;;;;;;;;;;;;;;;5250260;28;6987;-67
2022/10/21 16:21:26;;;;;;;;;;;;;;;;;;5260716;28;7038;-66
2022/10/21 16:24:01;;;;;;;;;;;;;;;;;;5262427;28;6855;-70
2022/10/21 16:26:37;;;;;;;;;;;;;;;;;;5263188;28;6952;-67
2022/10/21 16:29:20;;;;;;;;;;;;;;;;;;5240763;28;7102;-65
2022/10/21 16:31:57;;;;;;;;;;;;;;;;;;5263128;28;7097;-69
2022/10/21 16:34:35;;;;;;;;;;;;;;;;;;5254889;28;6939;-68
2022/10/21 16:37:23;;;;;;;;;;;;;;;;;;5256572;28;7021;-67
2022/10/21 16:39:58;;;;;;;;;;;;;;;;;;5265136;28;7050;-68
2022/10/21 16:42:32;;;;;;;;;;;;;;;;;;5248817;28;7148;-66
2022/10/21 16:45:07;;;;;;;;;;;;;;;;;;5259335;28;7146;-67
2022/10/21 16:47:51;;;;;;;;;;;;;;;;;;5268964;28;7038;-67
2022/10/21 16:50:43;;;;;;;;;;;;;;;;;;5258844;28;6851;-68
2022/10/21 16:53:17;;;;;;;;;;;;;;;;;;5279789;28;6993;-67
2022/10/21 16:55:50;;;;;;;;;;;;;;;;;;5267762;28;6963;-68
2022/10/21 16:58:27;;;;;;;;;;;;;;;;;;5263512;28;8025;-68
2022/10/21 17:01:00;;;;;;;;;;;;;;;;;;5272414;28;7077;-70
2022/10/21 17:03:33;;;;;;;;;;;;;;;;;;5236110;28;8715;-70
2022/10/21 17:06:19;;;;;;;;;;;;;;;;;;5269440;28;7095;-67
2022/10/21 17:08:52;;;;;;;;;;;;;;;;;;5262705;28;6953;-71
2022/10/21 17:11:31;;;;;;;;;;;;;;;;;;5273511;28;6855;-69
2022/10/21 17:14:09;;;;;;;;;;;;;;;;;;5289836;28;7002;-71
2022/10/21 17:16:44;;;;;;;;;;;;;;;;;;5273343;28;6855;-70
2022/10/21 17:19:16;;;;;;;;;;;;;;;;;;5273102;28;6856;-69
2022/10/21 17:21:54;;;;;;;;;;;;;;;;;;5272252;28;7011;-72
2022/10/21 17:24:29;;;;;;;;;;;;;;;;;;5259172;28;7937;-71
2022/10/21 17:27:01;;;;;;;;;;;;;;;;;;5252114;28;6855;-71
2022/10/21 17:29:36;;;;;;;;;;;;;;;;;;5252572;28;7058;-69
2022/10/21 17:32:12;;;;;;;;;;;;;;;;;;5255491;28;7077;-71
2022/10/21 17:34:44;;;;;;;;;;;;;;;;;;5255481;28;6912;-72
2022/10/21 17:37:16;;;;;;;;;;;;;;;;;;5246215;28;11452;-69
2022/10/21 17:39:49;;;;;;;;;;;;;;;;;;5245189;28;7966;-73
2022/10/21 17:42:21;;;;;;;;;;;;;;;;;;5231963;28;6943;-72
2022/10/21 17:44:53;;;;;;;;;;;;;;;;;;5229397;28;6896;-69
2022/10/21 17:47:25;;;;;;;;;;;;;;;;;;5231152;28;7039;-73
2022/10/21 17:50:00;;;;;;;;;;;;;;;;;;5230593;28;6935;-69
2022/10/21 17:52:36;;;;;;;;;;;;;;;;;;5231654;28;6964;-70
2022/10/21 17:55:12;;;;;;;;;;;;;;;;;;5247207;28;7019;-71
2022/10/21 17:57:44;;;;;;;;;;;;;;;;;;5220327;28;6856;-68
2022/10/21 18:00:16;;;;;;;;;;;;;;;;;;5251328;28;6958;-73
2022/10/21 18:21:21;;;;;;;;;;;;;;;;;;5354577;27;6971;-37
2022/10/21 18:23:56;;;;;;;;;;;;;;;;;;5332327;27;7034;-36
2022/10/21 18:29:31;;;;;;;;;;;;;;;;;;5332675;27;11336;-41
2022/10/21 18:32:07;;;;;;;;;;;;;;;;;;5310763;28;8004;-46
2022/10/21 18:57:45;;;;;;;;;;;;;;;;;;5285917;27;11279;-41
2022/10/21 19:00:17;;;;;;;;;;;;;;;;;;4569325;28;10000741;-39
2022/10/21 19:12:56;;;;;;;;;;;;;;;;;;5231105;27;7202;-37
2022/10/21 19:15:29;;;;;;;;;;;;;;;;;;5245298;28;7130;-49
2022/10/21 19:18:01;;;;;;;;;;;;;;;;;;5223581;28;12753;-39
2022/10/21 19:20:36;;;;;;;;;;;;;;;;;;5266587;28;8024;-45
2022/10/21 19:23:10;;;;;;;;;;;;;;;;;;5232763;28;7186;-42
2022/10/21 19:25:45;;;;;;;;;;;;;;;;;;5266717;28;7013;-45
2022/10/21 19:28:17;;;;;;;;;;;;;;;;;;5264532;28;12153;-45
2022/10/21 19:30:55;;;;;;;;;;;;;;;;;;5267489;28;7076;-46
2022/10/21 19:33:28;;;;;;;;;;;;;;;;;;5267703;28;8006;-54
2022/10/21 19:36:03;;;;;;;;;;;;;;;;;;5248876;28;9627;-42
